createdAt,value
2017-12-19T00:00:08.803Z,1016.54
2017-12-19T00:00:49.372Z,1016.52
2017-12-19T00:01:29.921Z,1016.56
2017-12-19T00:02:10.457Z,1016.53
2017-12-19T00:02:50.997Z,1016.58
2017-12-19T00:03:31.548Z,1016.55
2017-12-19T00:04:12.090Z,1016.57
2017-12-19T00:04:52.650Z,1016.56
2017-12-19T00:05:33.181Z,1016.55
2017-12-19T00:06:13.690Z,1016.55
2017-12-19T00:06:54.220Z,1016.54
2017-12-19T00:07:34.745Z,1016.57
2017-12-19T00:08:15.286Z,1016.56
2017-12-19T00:08:55.844Z,1016.55
2017-12-19T00:09:36.358Z,1016.56
2017-12-19T00:10:16.947Z,1016.53
2017-12-19T00:10:57.517Z,1016.55
2017-12-19T00:11:38.008Z,1016.51
2017-12-19T00:12:18.549Z,1016.47
2017-12-19T00:12:59.117Z,1016.47
2017-12-19T00:13:39.658Z,1016.46
2017-12-19T00:14:20.206Z,1016.47
2017-12-19T00:15:00.742Z,1016.47
2017-12-19T00:15:41.304Z,1016.48
2017-12-19T00:16:21.876Z,1016.5
2017-12-19T00:17:02.397Z,1016.46
2017-12-19T00:17:42.944Z,1016.48
2017-12-19T00:18:23.473Z,1016.48
2017-12-19T00:19:04.003Z,1016.49
2017-12-19T00:19:44.548Z,1016.48
2017-12-19T00:20:25.194Z,1016.48
2017-12-19T00:21:05.773Z,1016.49
2017-12-19T00:21:46.288Z,1016.46
2017-12-19T00:22:26.823Z,1016.44
2017-12-19T00:23:07.368Z,1016.44
2017-12-19T00:23:47.935Z,1016.48
2017-12-19T00:24:28.448Z,1016.45
2017-12-19T00:25:08.995Z,1016.45
2017-12-19T00:25:49.516Z,1016.5
2017-12-19T00:26:30.067Z,1016.52
2017-12-19T00:27:10.642Z,1016.54
2017-12-19T00:27:51.176Z,1016.6
2017-12-19T00:28:31.736Z,1016.55
2017-12-19T00:29:12.282Z,1016.57
2017-12-19T00:29:52.834Z,1016.6
2017-12-19T00:30:33.362Z,1016.6
2017-12-19T00:31:13.914Z,1016.55
2017-12-19T00:31:54.500Z,1016.56
2017-12-19T00:32:35.058Z,1016.61
2017-12-19T00:33:15.588Z,1016.59
2017-12-19T00:33:56.130Z,1016.61
2017-12-19T00:34:36.681Z,1016.6
2017-12-19T00:35:17.231Z,1016.64
2017-12-19T00:35:57.765Z,1016.65
2017-12-19T00:36:38.322Z,1016.65
2017-12-19T00:37:18.836Z,1016.66
2017-12-19T00:37:59.356Z,1016.65
2017-12-19T00:38:39.918Z,1016.66
2017-12-19T00:39:20.467Z,1016.65
2017-12-19T00:40:01.004Z,1016.63
2017-12-19T00:40:41.548Z,1016.63
2017-12-19T00:41:22.113Z,1016.62
2017-12-19T00:42:02.636Z,1016.67
2017-12-19T00:42:43.170Z,1016.6
2017-12-19T00:43:23.748Z,1016.66
2017-12-19T00:44:04.247Z,1016.68
2017-12-19T00:44:44.767Z,1016.67
2017-12-19T00:45:25.326Z,1016.7
2017-12-19T00:46:05.898Z,1016.68
2017-12-19T00:46:46.465Z,1016.68
2017-12-19T00:47:27.020Z,1016.71
2017-12-19T00:48:07.574Z,1016.73
2017-12-19T00:48:48.084Z,1016.7
2017-12-19T00:49:28.622Z,1016.68
2017-12-19T00:50:09.174Z,1016.63
2017-12-19T00:50:49.729Z,1016.64
2017-12-19T00:51:30.279Z,1016.58
2017-12-19T00:52:10.811Z,1016.62
2017-12-19T00:52:51.370Z,1016.54
2017-12-19T00:53:31.904Z,1016.54
2017-12-19T00:54:12.448Z,1016.52
2017-12-19T00:54:53.018Z,1016.56
2017-12-19T00:55:33.561Z,1016.61
2017-12-19T00:56:14.097Z,1016.65
2017-12-19T00:56:54.627Z,1016.66
2017-12-19T00:57:35.173Z,1016.74
2017-12-19T00:58:15.736Z,1016.76
2017-12-19T00:58:56.262Z,1016.8
2017-12-19T00:59:36.776Z,1016.77
2017-12-19T01:00:17.330Z,1016.82
2017-12-19T01:00:57.893Z,1016.8
2017-12-19T01:01:38.440Z,1016.78
2017-12-19T01:02:18.983Z,1016.78
2017-12-19T01:02:59.537Z,1016.83
2017-12-19T01:03:40.067Z,1016.79
2017-12-19T01:04:20.636Z,1016.81
2017-12-19T01:05:01.155Z,1016.82
2017-12-19T01:05:41.684Z,1016.84
2017-12-19T01:06:22.242Z,1016.83
2017-12-19T01:07:02.793Z,1016.84
2017-12-19T01:07:43.338Z,1016.86
2017-12-19T01:08:23.892Z,1016.87
2017-12-19T01:09:04.440Z,1016.85
2017-12-19T01:09:44.973Z,1016.87
2017-12-19T01:10:25.489Z,1016.86
2017-12-19T01:11:06.077Z,1016.84
2017-12-19T01:11:46.604Z,1016.89
2017-12-19T01:12:27.142Z,1016.96
2017-12-19T01:13:07.722Z,1016.95
2017-12-19T01:13:48.253Z,1016.97
2017-12-19T01:14:28.795Z,1016.99
2017-12-19T01:15:09.328Z,1017.04
2017-12-19T01:15:49.889Z,1017.08
2017-12-19T01:16:30.433Z,1017.05
2017-12-19T01:17:11.006Z,1017.04
2017-12-19T01:17:51.523Z,1017.07
2017-12-19T01:18:32.045Z,1017.12
2017-12-19T01:19:12.621Z,1017.17
2017-12-19T01:19:53.144Z,1017.21
2017-12-19T01:20:33.680Z,1017.16
2017-12-19T01:21:14.199Z,1017.22
2017-12-19T01:21:54.727Z,1017.24
2017-12-19T01:22:35.291Z,1017.25
2017-12-19T01:23:15.831Z,1017.23
2017-12-19T01:23:56.379Z,1017.21
2017-12-19T01:24:36.918Z,1017.23
2017-12-19T01:25:17.488Z,1017.2
2017-12-19T01:25:58.032Z,1017.21
2017-12-19T01:26:38.595Z,1017.17
2017-12-19T01:27:19.127Z,1017.13
2017-12-19T01:27:59.663Z,1017.12
2017-12-19T01:28:40.219Z,1017.15
2017-12-19T01:29:20.759Z,1017.16
2017-12-19T01:30:01.318Z,1017.19
2017-12-19T01:30:41.878Z,1017.22
2017-12-19T01:31:22.434Z,1017.29
2017-12-19T01:32:03.001Z,1017.29
2017-12-19T01:32:43.548Z,1017.29
2017-12-19T01:33:24.072Z,1017.3
2017-12-19T01:34:04.616Z,1017.27
2017-12-19T01:34:45.148Z,1017.25
2017-12-19T01:35:25.673Z,1017.27
2017-12-19T01:36:06.200Z,1017.22
2017-12-19T01:36:46.734Z,1017.31
2017-12-19T01:37:27.280Z,1017.33
2017-12-19T01:38:07.827Z,1017.33
2017-12-19T01:38:48.346Z,1017.4
2017-12-19T01:39:28.891Z,1017.36
2017-12-19T01:40:09.430Z,1017.39
2017-12-19T01:40:49.982Z,1017.32
2017-12-19T01:41:30.544Z,1017.35
2017-12-19T01:42:11.049Z,1017.33
2017-12-19T01:42:51.588Z,1017.3
2017-12-19T01:43:32.121Z,1017.32
2017-12-19T01:44:12.684Z,1017.31
2017-12-19T01:44:53.225Z,1017.34
2017-12-19T01:45:33.801Z,1017.38
2017-12-19T01:46:14.346Z,1017.35
2017-12-19T01:46:54.885Z,1017.34
2017-12-19T01:47:35.426Z,1017.35
2017-12-19T01:48:15.956Z,1017.33
2017-12-19T01:48:56.470Z,1017.32
2017-12-19T01:49:36.981Z,1017.3
2017-12-19T01:50:17.552Z,1017.26
2017-12-19T01:50:58.080Z,1017.3
2017-12-19T01:51:38.633Z,1017.35
2017-12-19T01:52:19.190Z,1017.36
2017-12-19T01:52:59.738Z,1017.39
2017-12-19T01:53:40.302Z,1017.4
2017-12-19T01:54:20.823Z,1017.43
2017-12-19T01:55:01.374Z,1017.43
2017-12-19T01:55:41.909Z,1017.43
2017-12-19T01:56:22.484Z,1017.4
2017-12-19T01:57:03.064Z,1017.41
2017-12-19T01:57:43.606Z,1017.43
2017-12-19T01:58:24.152Z,1017.4
2017-12-19T01:59:04.692Z,1017.43
2017-12-19T01:59:45.230Z,1017.5
2017-12-19T02:00:25.765Z,1017.46
2017-12-19T02:01:06.295Z,1017.52
2017-12-19T02:01:46.852Z,1017.52
2017-12-19T02:02:27.389Z,1017.5
2017-12-19T02:03:07.943Z,1017.49
2017-12-19T02:03:48.475Z,1017.44
2017-12-19T02:04:29.013Z,1017.43
2017-12-19T02:05:09.568Z,1017.39
2017-12-19T02:05:50.157Z,1017.35
2017-12-19T02:06:30.700Z,1017.37
2017-12-19T02:07:11.245Z,1017.38
2017-12-19T02:07:51.801Z,1017.41
2017-12-19T02:08:32.375Z,1017.46
2017-12-19T02:09:12.909Z,1017.48
2017-12-19T02:09:53.441Z,1017.54
2017-12-19T02:10:33.980Z,1017.56
2017-12-19T02:11:14.552Z,1017.62
2017-12-19T02:11:55.096Z,1017.66
2017-12-19T02:12:35.633Z,1017.68
2017-12-19T02:13:16.201Z,1017.67
2017-12-19T02:13:56.758Z,1017.71
2017-12-19T02:14:37.309Z,1017.66
2017-12-19T02:15:17.863Z,1017.7
2017-12-19T02:15:58.395Z,1017.69
2017-12-19T02:16:38.970Z,1017.74
2017-12-19T02:17:19.522Z,1017.71
2017-12-19T02:18:00.064Z,1017.75
2017-12-19T02:18:40.596Z,1017.8
2017-12-19T02:19:21.135Z,1017.79
2017-12-19T02:20:01.670Z,1017.84
2017-12-19T02:20:42.212Z,1017.82
2017-12-19T02:21:22.751Z,1017.76
2017-12-19T02:22:03.287Z,1017.74
2017-12-19T02:22:43.832Z,1017.69
2017-12-19T02:23:24.381Z,1017.7
2017-12-19T02:24:04.927Z,1017.69
2017-12-19T02:24:45.447Z,1017.73
2017-12-19T02:25:25.977Z,1017.71
2017-12-19T02:26:06.518Z,1017.72
2017-12-19T02:26:47.079Z,1017.73
2017-12-19T02:27:27.623Z,1017.71
2017-12-19T02:28:08.173Z,1017.71
2017-12-19T02:28:48.707Z,1017.74
2017-12-19T02:29:29.250Z,1017.71
2017-12-19T02:30:09.781Z,1017.69
2017-12-19T02:30:50.330Z,1017.66
2017-12-19T02:31:30.887Z,1017.71
2017-12-19T02:32:11.480Z,1017.68
2017-12-19T02:32:51.985Z,1017.77
2017-12-19T02:33:32.525Z,1017.76
2017-12-19T02:34:13.069Z,1017.8
2017-12-19T02:34:53.592Z,1017.79
2017-12-19T02:35:34.121Z,1017.86
2017-12-19T02:36:14.634Z,1017.8
2017-12-19T02:36:55.197Z,1017.79
2017-12-19T02:37:35.726Z,1017.73
2017-12-19T02:38:16.248Z,1017.66
2017-12-19T02:38:56.806Z,1017.7
2017-12-19T02:39:37.324Z,1017.67
2017-12-19T02:40:17.877Z,1017.7
2017-12-19T02:40:58.431Z,1017.67
2017-12-19T02:41:38.946Z,1017.72
2017-12-19T02:42:19.465Z,1017.75
2017-12-19T02:43:00.038Z,1017.76
2017-12-19T02:43:40.563Z,1017.83
2017-12-19T02:44:21.090Z,1017.88
2017-12-19T02:45:01.608Z,1017.93
2017-12-19T02:45:42.166Z,1017.95
2017-12-19T02:46:22.719Z,1018.01
2017-12-19T02:47:03.224Z,1018.03
2017-12-19T02:47:43.746Z,1017.96
2017-12-19T02:48:24.281Z,1017.96
2017-12-19T02:49:04.808Z,1017.89
2017-12-19T02:49:45.391Z,1017.95
2017-12-19T02:50:25.951Z,1017.95
2017-12-19T02:51:06.490Z,1017.99
2017-12-19T02:51:47.043Z,1018.03
2017-12-19T02:52:27.591Z,1018.11
2017-12-19T02:53:08.117Z,1018.11
2017-12-19T02:53:48.649Z,1018.09
2017-12-19T02:54:29.214Z,1018.13
2017-12-19T02:55:09.728Z,1018.1
2017-12-19T02:55:50.281Z,1018.14
2017-12-19T02:56:30.825Z,1018.14
2017-12-19T02:57:11.366Z,1018.22
2017-12-19T02:57:51.920Z,1018.25
2017-12-19T02:58:32.468Z,1018.19
2017-12-19T02:59:13.031Z,1018.18
2017-12-19T02:59:53.585Z,1018.09
2017-12-19T03:00:34.123Z,1018.05
2017-12-19T03:01:14.671Z,1018.04
2017-12-19T03:01:55.219Z,1017.99
2017-12-19T03:02:35.772Z,1017.93
2017-12-19T03:03:16.285Z,1017.95
2017-12-19T03:03:56.835Z,1017.99
2017-12-19T03:04:37.382Z,1018.03
2017-12-19T03:05:17.934Z,1018.01
2017-12-19T03:05:58.487Z,1018.1
2017-12-19T03:06:39.033Z,1018.1
2017-12-19T03:07:19.564Z,1018.1
2017-12-19T03:08:00.095Z,1018.09
2017-12-19T03:08:40.618Z,1018.13
2017-12-19T03:09:21.148Z,1018.04
2017-12-19T03:10:01.698Z,1018.08
2017-12-19T03:10:42.272Z,1018.08
2017-12-19T03:11:22.796Z,1018.04
2017-12-19T03:12:03.394Z,1018.03
2017-12-19T03:12:43.870Z,1018.02
2017-12-19T03:13:24.410Z,1018.06
2017-12-19T03:14:04.960Z,1018.11
2017-12-19T03:14:45.494Z,1018.05
2017-12-19T03:15:26.041Z,1018.05
2017-12-19T03:16:06.583Z,1018.1
2017-12-19T03:16:47.109Z,1018.04
2017-12-19T03:17:27.634Z,1018.01
2017-12-19T03:18:08.190Z,1017.95
2017-12-19T03:18:48.752Z,1017.97
2017-12-19T03:19:29.297Z,1017.99
2017-12-19T03:20:09.849Z,1018.02
2017-12-19T03:20:50.451Z,1018.07
2017-12-19T03:21:31.005Z,1018.02
2017-12-19T03:22:11.533Z,1018.08
2017-12-19T03:22:52.086Z,1018.09
2017-12-19T03:23:32.633Z,1018.07
2017-12-19T03:24:13.166Z,1018.05
2017-12-19T03:24:53.723Z,1018.09
2017-12-19T03:27:11.819Z,1018.08
2017-12-19T03:27:52.414Z,1018.07
2017-12-19T03:28:32.947Z,1018.11
2017-12-19T03:29:13.484Z,1018.11
2017-12-19T03:29:54.035Z,1018.12
2017-12-19T03:30:34.565Z,1018.08
2017-12-19T03:31:15.131Z,1018.06
2017-12-19T03:31:55.648Z,1018.05
2017-12-19T03:32:36.184Z,1018.05
2017-12-19T03:33:16.706Z,1018.07
2017-12-19T03:33:57.246Z,1018.06
2017-12-19T03:34:37.807Z,1018.06
2017-12-19T03:35:18.340Z,1018.05
2017-12-19T03:35:58.847Z,1018.05
2017-12-19T03:36:39.401Z,1018.05
2017-12-19T03:37:19.919Z,1018.02
2017-12-19T03:38:00.481Z,1018.03
2017-12-19T03:38:41.018Z,1018.03
2017-12-19T03:39:21.536Z,1018.06
2017-12-19T03:40:02.092Z,1018.01
2017-12-19T03:40:42.630Z,1018.03
2017-12-19T03:41:23.195Z,1018.05
2017-12-19T03:42:03.737Z,1018.04
2017-12-19T03:42:44.297Z,1018.04
2017-12-19T03:43:24.846Z,1018.02
2017-12-19T03:44:05.384Z,1018.08
2017-12-19T03:44:45.900Z,1018.11
2017-12-19T03:45:26.453Z,1018.09
2017-12-19T03:46:06.978Z,1018.15
2017-12-19T03:46:47.501Z,1018.15
2017-12-19T03:47:28.035Z,1018.14
2017-12-19T03:48:08.586Z,1018.19
2017-12-19T03:48:49.184Z,1018.15
2017-12-19T03:49:29.684Z,1018.21
2017-12-19T03:50:10.231Z,1018.09
2017-12-19T03:50:50.798Z,1018.08
2017-12-19T03:51:31.311Z,1018.12
2017-12-19T03:52:11.845Z,1018.06
2017-12-19T03:52:52.377Z,1018
2017-12-19T03:53:32.917Z,1018.09
2017-12-19T03:54:13.478Z,1018.12
2017-12-19T03:54:54.034Z,1018.11
2017-12-19T03:55:34.561Z,1018.06
2017-12-19T03:56:15.120Z,1018.15
2017-12-19T03:56:55.653Z,1018.13
2017-12-19T03:57:36.197Z,1018.16
2017-12-19T03:58:16.711Z,1018.12
2017-12-19T03:58:57.263Z,1018.15
2017-12-19T03:59:37.779Z,1018.13
2017-12-19T04:00:18.323Z,1018.17
2017-12-19T04:00:58.858Z,1018.12
2017-12-19T04:01:39.361Z,1018.13
2017-12-19T04:02:19.960Z,1018.11
2017-12-19T04:03:00.515Z,1018.14
2017-12-19T04:03:41.066Z,1018.14
2017-12-19T04:04:21.596Z,1018.18
2017-12-19T04:05:02.163Z,1018.21
2017-12-19T04:05:42.700Z,1018.17
2017-12-19T04:06:23.249Z,1018.21
2017-12-19T04:07:03.797Z,1018.18
2017-12-19T04:07:44.331Z,1018.14
2017-12-19T04:08:24.870Z,1018.13
2017-12-19T04:09:05.400Z,1018.11
2017-12-19T04:09:45.933Z,1018.15
2017-12-19T04:10:26.471Z,1018.16
2017-12-19T04:11:06.997Z,1018.18
2017-12-19T04:11:47.539Z,1018.2
2017-12-19T04:12:28.099Z,1018.17
2017-12-19T04:13:08.630Z,1018.18
2017-12-19T04:13:49.176Z,1018.13
2017-12-19T04:14:29.723Z,1018.17
2017-12-19T04:15:10.280Z,1018.16
2017-12-19T04:15:50.870Z,1018.2
2017-12-19T04:16:31.439Z,1018.19
2017-12-19T04:17:11.985Z,1018.19
2017-12-19T04:17:52.515Z,1018.17
2017-12-19T04:18:33.065Z,1018.25
2017-12-19T04:19:13.625Z,1018.26
2017-12-19T04:19:54.183Z,1018.3
2017-12-19T04:20:34.704Z,1018.3
2017-12-19T04:21:15.232Z,1018.29
2017-12-19T04:21:55.791Z,1018.27
2017-12-19T04:22:36.346Z,1018.21
2017-12-19T04:23:16.893Z,1018.27
2017-12-19T04:23:57.466Z,1018.23
2017-12-19T04:24:37.996Z,1018.21
2017-12-19T04:25:18.522Z,1018.22
2017-12-19T04:25:59.067Z,1018.21
2017-12-19T04:26:39.592Z,1018.21
2017-12-19T04:27:20.135Z,1018.23
2017-12-19T04:28:00.676Z,1018.21
2017-12-19T04:28:41.241Z,1018.22
2017-12-19T04:29:21.710Z,1018.22
2017-12-19T04:30:02.241Z,1018.29
2017-12-19T04:30:42.792Z,1018.23
2017-12-19T04:31:23.332Z,1018.21
2017-12-19T04:32:03.873Z,1018.21
2017-12-19T04:32:44.411Z,1018.23
2017-12-19T04:33:24.937Z,1018.27
2017-12-19T04:34:05.476Z,1018.23
2017-12-19T04:34:46.000Z,1018.23
2017-12-19T04:35:26.545Z,1018.25
2017-12-19T04:36:07.073Z,1018.2
2017-12-19T04:36:47.597Z,1018.2
2017-12-19T04:37:28.153Z,1018.24
2017-12-19T04:38:08.699Z,1018.25
2017-12-19T04:38:49.273Z,1018.28
2017-12-19T04:39:29.825Z,1018.28
2017-12-19T04:40:10.361Z,1018.3
2017-12-19T04:40:50.910Z,1018.3
2017-12-19T04:41:31.460Z,1018.31
2017-12-19T04:42:11.999Z,1018.3
2017-12-19T04:42:52.540Z,1018.32
2017-12-19T04:43:33.068Z,1018.32
2017-12-19T04:44:13.601Z,1018.37
2017-12-19T04:44:54.151Z,1018.32
2017-12-19T04:45:34.680Z,1018.33
2017-12-19T04:46:15.195Z,1018.41
2017-12-19T04:46:55.732Z,1018.38
2017-12-19T04:47:36.287Z,1018.38
2017-12-19T04:48:16.818Z,1018.4
2017-12-19T04:48:57.366Z,1018.39
2017-12-19T04:49:37.913Z,1018.39
2017-12-19T04:50:18.479Z,1018.39
2017-12-19T04:50:59.001Z,1018.49
2017-12-19T04:51:39.564Z,1018.49
2017-12-19T04:52:20.113Z,1018.5
2017-12-19T04:53:00.623Z,1018.51
2017-12-19T04:53:41.194Z,1018.56
2017-12-19T04:54:21.723Z,1018.57
2017-12-19T04:55:02.259Z,1018.55
2017-12-19T04:55:42.801Z,1018.54
2017-12-19T04:56:23.353Z,1018.56
2017-12-19T04:57:03.890Z,1018.55
2017-12-19T04:57:44.439Z,1018.57
2017-12-19T04:58:24.970Z,1018.56
2017-12-19T04:59:05.512Z,1018.56
2017-12-19T04:59:46.075Z,1018.53
2017-12-19T05:00:26.624Z,1018.54
2017-12-19T05:01:07.153Z,1018.59
2017-12-19T05:01:47.691Z,1018.64
2017-12-19T05:02:28.228Z,1018.67
2017-12-19T05:03:08.791Z,1018.61
2017-12-19T05:03:49.343Z,1018.63
2017-12-19T05:04:29.868Z,1018.61
2017-12-19T05:05:10.393Z,1018.62
2017-12-19T05:05:50.966Z,1018.63
2017-12-19T05:06:31.496Z,1018.62
2017-12-19T05:07:12.033Z,1018.67
2017-12-19T05:07:52.601Z,1018.69
2017-12-19T05:08:33.162Z,1018.7
2017-12-19T05:09:13.699Z,1018.72
2017-12-19T05:09:54.230Z,1018.73
2017-12-19T05:10:34.778Z,1018.72
2017-12-19T05:11:15.351Z,1018.74
2017-12-19T05:11:55.881Z,1018.76
2017-12-19T05:12:36.399Z,1018.77
2017-12-19T05:13:16.951Z,1018.8
2017-12-19T05:13:57.500Z,1018.84
2017-12-19T05:14:38.023Z,1018.89
2017-12-19T05:15:18.590Z,1018.88
2017-12-19T05:15:59.146Z,1018.85
2017-12-19T05:16:39.689Z,1018.86
2017-12-19T05:17:20.218Z,1018.85
2017-12-19T05:18:00.745Z,1018.83
2017-12-19T05:18:41.307Z,1018.89
2017-12-19T05:19:21.862Z,1018.96
2017-12-19T05:20:02.438Z,1018.97
2017-12-19T05:20:42.966Z,1018.94
2017-12-19T05:21:23.488Z,1018.94
2017-12-19T05:22:04.028Z,1018.92
2017-12-19T05:22:44.585Z,1018.87
2017-12-19T05:23:25.197Z,1018.85
2017-12-19T05:24:05.734Z,1018.91
2017-12-19T05:24:46.296Z,1018.95
2017-12-19T05:25:26.856Z,1019
2017-12-19T05:26:07.448Z,1018.95
2017-12-19T05:26:47.969Z,1018.99
2017-12-19T05:27:28.538Z,1018.98
2017-12-19T05:28:09.082Z,1019.01
2017-12-19T05:28:49.634Z,1019.03
2017-12-19T05:29:30.176Z,1019.02
2017-12-19T05:30:10.710Z,1019.04
2017-12-19T05:30:51.237Z,1019.1
2017-12-19T05:31:31.788Z,1019.05
2017-12-19T05:32:12.316Z,1019.06
2017-12-19T05:32:52.884Z,1019.04
2017-12-19T22:20:16.118Z,1021.68
2017-12-19T22:20:56.690Z,1021.67
2017-12-19T22:21:37.183Z,1021.66
2017-12-19T22:22:17.795Z,1021.64
2017-12-19T22:22:58.313Z,1021.62
2017-12-19T22:23:38.856Z,1021.63
2017-12-19T22:24:19.425Z,1021.64
2017-12-19T22:24:59.996Z,1021.64
2017-12-19T22:25:40.610Z,1021.64
2017-12-19T22:26:21.257Z,1021.65
2017-12-19T22:27:01.788Z,1021.67
2017-12-19T22:27:42.344Z,1021.66
2017-12-19T22:28:22.889Z,1021.68
2017-12-19T22:29:03.453Z,1021.71
2017-12-19T22:29:43.988Z,1021.66
2017-12-19T22:30:24.540Z,1021.66
2017-12-19T22:31:05.097Z,1021.66
2017-12-19T22:31:45.657Z,1021.66
2017-12-19T22:32:26.706Z,1021.69
2017-12-19T22:33:07.205Z,1021.62
2017-12-19T22:33:47.771Z,1021.72
2017-12-19T22:34:28.257Z,1021.65
2017-12-19T22:35:08.797Z,1021.72
2017-12-19T22:35:52.627Z,1021.71
2017-12-19T22:36:33.179Z,1021.73
2017-12-19T22:37:14.028Z,1021.73
2017-12-19T22:37:54.627Z,1021.69
2017-12-19T22:38:35.271Z,1021.74
2017-12-19T22:39:15.703Z,1021.71
2017-12-19T22:39:56.213Z,1021.68
2017-12-19T22:40:36.772Z,1021.68
2017-12-19T22:41:17.344Z,1021.69
2017-12-19T22:41:57.867Z,1021.71
2017-12-19T22:42:38.351Z,1021.64
2017-12-19T22:43:18.996Z,1021.63
2017-12-19T22:43:59.526Z,1021.68
2017-12-19T22:44:40.062Z,1021.72
2017-12-19T22:45:20.581Z,1021.71
2017-12-19T22:46:01.155Z,1021.66
2017-12-19T22:46:41.712Z,1021.67
2017-12-19T22:47:22.307Z,1021.69
2017-12-19T22:48:02.756Z,1021.65
2017-12-19T22:48:43.343Z,1021.7
2017-12-19T22:49:23.871Z,1021.68
2017-12-19T22:50:04.403Z,1021.69
2017-12-19T22:50:44.932Z,1021.72
2017-12-19T22:51:25.450Z,1021.68
2017-12-19T22:52:05.988Z,1021.73
2017-12-19T22:52:46.561Z,1021.67
2017-12-19T22:53:27.096Z,1021.66
2017-12-19T22:54:07.676Z,1021.68
2017-12-19T22:54:48.225Z,1021.68
2017-12-19T22:55:28.748Z,1021.64
2017-12-19T22:56:09.300Z,1021.61
2017-12-19T22:56:49.860Z,1021.64
2017-12-19T22:57:30.401Z,1021.65
2017-12-19T22:58:10.958Z,1021.68
2017-12-19T22:58:51.562Z,1021.63
2017-12-19T22:59:32.114Z,1021.65
2017-12-19T23:00:12.655Z,1021.62
2017-12-19T23:00:53.240Z,1021.66
2017-12-19T23:01:33.758Z,1021.63
2017-12-19T23:02:14.313Z,1021.64
2017-12-19T23:02:54.833Z,1021.62
2017-12-19T23:03:35.379Z,1021.67
2017-12-19T23:04:15.911Z,1021.65
2017-12-19T23:04:56.485Z,1021.66
2017-12-19T23:05:37.048Z,1021.65
2017-12-19T23:06:17.604Z,1021.68
2017-12-19T23:06:58.100Z,1021.62
2017-12-19T23:07:38.632Z,1021.61
2017-12-19T23:08:19.225Z,1021.67
2017-12-19T23:08:59.746Z,1021.62
2017-12-19T23:09:40.291Z,1021.61
2017-12-19T23:10:20.832Z,1021.65
2017-12-19T23:11:01.363Z,1021.63
2017-12-19T23:11:42.053Z,1021.68
2017-12-19T23:12:22.581Z,1021.6
2017-12-19T23:13:03.096Z,1021.65
2017-12-19T23:13:43.692Z,1021.72
2017-12-19T23:14:24.238Z,1021.66
2017-12-19T23:15:04.778Z,1021.66
2017-12-19T23:15:45.311Z,1021.67
2017-12-19T23:16:25.843Z,1021.75
2017-12-19T23:17:06.411Z,1021.75
2017-12-19T23:17:46.977Z,1021.74
2017-12-19T23:18:27.487Z,1021.79
2017-12-19T23:19:08.075Z,1021.83
2017-12-19T23:19:48.634Z,1021.82
2017-12-19T23:20:29.149Z,1021.83
2017-12-19T23:21:09.727Z,1021.87
2017-12-19T23:21:50.213Z,1021.87
2017-12-19T23:22:30.749Z,1021.87
2017-12-19T23:23:11.272Z,1021.85
2017-12-19T23:23:51.814Z,1021.83
2017-12-19T23:24:32.370Z,1021.83
2017-12-19T23:25:12.931Z,1021.84
2017-12-19T23:25:53.444Z,1021.84
2017-12-19T23:26:34.025Z,1021.85
2017-12-19T23:27:14.578Z,1021.79
2017-12-19T23:27:55.072Z,1021.83
2017-12-19T23:28:35.613Z,1021.84
2017-12-19T23:29:16.155Z,1021.86
2017-12-19T23:29:56.718Z,1021.86
2017-12-19T23:30:37.254Z,1021.87
2017-12-19T23:31:17.758Z,1021.88
2017-12-19T23:31:58.299Z,1021.84
2017-12-19T23:32:38.807Z,1021.87
2017-12-19T23:33:19.378Z,1021.85
2017-12-19T23:33:59.900Z,1021.79
2017-12-19T23:34:40.471Z,1021.78
2017-12-19T23:35:21.019Z,1021.79
2017-12-19T23:36:01.539Z,1021.79
2017-12-19T23:36:42.092Z,1021.76
2017-12-19T23:37:22.650Z,1021.79
2017-12-19T23:38:03.195Z,1021.77
2017-12-19T23:38:43.744Z,1021.75
2017-12-19T23:39:24.352Z,1021.78
2017-12-19T23:40:04.903Z,1021.78
2017-12-19T23:40:45.442Z,1021.78
2017-12-19T23:41:25.975Z,1021.72
2017-12-19T23:42:06.450Z,1021.7
2017-12-19T23:42:47.054Z,1021.77
2017-12-19T23:43:27.515Z,1021.69
2017-12-19T23:44:08.082Z,1021.69
2017-12-19T23:44:48.611Z,1021.66
2017-12-19T23:45:29.123Z,1021.62
2017-12-19T23:46:09.611Z,1021.66
2017-12-19T23:46:50.185Z,1021.69
2017-12-19T23:47:30.730Z,1021.61
2017-12-19T23:48:11.410Z,1021.63
2017-12-19T23:48:51.969Z,1021.67
2017-12-19T23:49:32.574Z,1021.62
2017-12-19T23:50:13.060Z,1021.63
2017-12-19T23:50:53.617Z,1021.58
2017-12-19T23:51:34.230Z,1021.57
2017-12-19T23:52:14.750Z,1021.54
2017-12-19T23:52:55.313Z,1021.5
2017-12-19T23:53:35.797Z,1021.57
2017-12-19T23:54:16.352Z,1021.54
2017-12-19T23:54:56.899Z,1021.54
2017-12-19T23:55:37.447Z,1021.47
2017-12-19T23:56:17.967Z,1021.53
2017-12-19T23:56:58.524Z,1021.53
2017-12-19T23:57:39.025Z,1021.53
2017-12-19T23:58:19.584Z,1021.52
2017-12-19T23:59:00.087Z,1021.56
2017-12-19T23:59:40.625Z,1021.54
